Evanston, WY (82930)

3:01 PM MST on February 08, 2016 (GMT -0700)
Evanston-Uinta County Burns | | Change Station
CLOSE
Current Station
Airport
Location: Evanston,
Elevation: 7142 ft
Nearby Weather Stations

Elev 7142 ft 41.27 °N, 111.03 °W | Updated 8 minutes ago

Clear
Clear
33 °F
Feels Like 33 °F
N
0
Wind Variable Wind from North

Today
High -- | Low -- °F
--% Chance of Precip.
Yesterday
High -- | Low -- °F
Precip. -- in
Pressure 30.65 in
Visibility 10.0 miles
Clouds Clear
Dew Point 18 °F
Humidity 54%
Rainfall 0.00 in
Snow Depth Not available.
7:27 AM 5:48 PM
New Moon, 0% visible
METAR KEVW 082153Z AUTO 00000KT 10SM CLR 01/M08 A3058 RMK AO2 SLP377 T00061078
Pressure 30.65 in
Visibility 10.0 miles
Clouds Clear
Dew Point 18 °F
Humidity 54%
Rainfall 0.00 in
Snow Depth Not available.
7:27 AM 5:48 PM
New Moon, 0% visible
METAR KEVW 082153Z AUTO 00000KT 10SM CLR 01/M08 A3058 RMK AO2 SLP377 T00061078

10-Day Weather Forecast

Almanac

Astronomy

Feb. 08, 2016 Rise Set
Actual Time
Civil Twilight
Nautical Twilight
Astronomical Twilight
Moon
Length of Visible Light
Length of Day
Tomorrow will be .
, % of the Moon is Illuminated

Today's Extremes

State Highs State Lows

Community

WunderPhotos

Upload Photos

1,891,511 photos uploaded!

WunderBlog® & News

Nearby

Air Quality

  Air Quality AQ Index Pollutant
Not available.

Snow Depth

Station Depth Elevation

Earthquake Activity

City Distance Mag. Time & Date
Minimum magnitude displayed is 2.5.

Coastal Water Temperatures

Place Temperature

Stations

Nearby Weather Stations

Station Location Temp. Windchill Dew Point Humidity Wind Precip. Elev Updated Type
                   

Watches & Warnings

There are currently no watches in effect.